Check out our new BloomSky Weather System.

Active alerts

Galveston, TX
  Details for Galveston, TX Coastal Flood Advisory  +1 additional alert


Thunder radar  blitzortung!


Rain radar more information rain snow radar


Visit our other weather sites:

Template documentation
and downloads

And another site



Weather Underground History page Text

Daily Summary for January 22, 2018 Units:  Metric    English   Both
« Previous Day
Next Day »
Daily Weekly Monthly Yearly Custom
  High: Low: Average:
Temperature: -17.8 °C 4.9 °C 14.8 °C
Dew Point: -17.8 °C -1.8 °C 4.8 °C
Humidity: Humidity % 26 % 55 %
Wind Speed: 0 km/h 0 km/h 5.1 km/h
Wind Gust: 0 km/h - -
Wind:- - WNW
Pressure: 0 hPa 1011.4 hPa -
Precipitation: 0 mm    
Historical Graphs
 
 
Tabular Data for January 22, 2018
Time Temperature Dew Point Pressure Wind Wind Speed Wind Gust Humidity Rainfall Rate (Hourly)
-17.8 °C -17.8 °C 0 hPa Calm     Humidity % 0 mm
00:02 19.9 °C 19.4 °C 1011.7 hPa SW 8 km/h 11.3 km/h 97 % 0 mm
00:07 19.9 °C 19.4 °C 1011.7 hPa SW 9.7 km/h 11.3 km/h 97 % 0 mm
00:12 20 °C 19.5 °C 1011.7 hPa SSW 9.7 km/h 12.9 km/h 97 % 0 mm
00:17 20.1 °C 19.6 °C 1011.4 hPa SSW 4.8 km/h 14.5 km/h 97 % 0 mm
00:22 20.1 °C 19.6 °C 1011.4 hPa SSW 6.4 km/h 17.7 km/h 97 % 0 mm
00:27 20.1 °C 19.6 °C 1011.4 hPa SSE 6.4 km/h 17.7 km/h 97 % 0 mm
00:32 20.2 °C 19.7 °C 1011.4 hPa SSW 9.7 km/h 17.7 km/h 97 % 0 mm
00:37 20.2 °C 19.7 °C 1011.4 hPa SW 12.9 km/h 17.7 km/h 97 % 0 mm
00:42 20.2 °C 19.7 °C 1011.4 hPa SW 8 km/h 17.7 km/h 97 % 0 mm
00:47 20.3 °C 19.8 °C 1011.4 hPa SSW 6.4 km/h 17.7 km/h 97 % 0 mm
00:52 20.3 °C 19.6 °C 1011.4 hPa SW 6.4 km/h 17.7 km/h 96 % 0 mm
00:57 20.3 °C 19.6 °C 1011.4 hPa SW 14.5 km/h 17.7 km/h 96 % 0 mm
01:02 20.4 °C 19.7 °C 1011.4 hPa SW 16.1 km/h 24.1 km/h 96 % 0 mm
01:07 20.4 °C 19.7 °C 1011.4 hPa SSW 8 km/h 24.1 km/h 96 % 0 mm
01:17 20.5 °C 19.7 °C 1011.4 hPa SSW 4.8 km/h 25.7 km/h 95 % 0 mm
01:22 20.5 °C 19.7 °C 1011.4 hPa WSW 4.8 km/h 25.7 km/h 95 % 0 mm
01:27 20.5 °C 19.7 °C 1011.4 hPa SW 9.7 km/h 20.9 km/h 95 % 0 mm
01:32 20.4 °C 19.6 °C 1011.4 hPa SSE 8 km/h 20.9 km/h 95 % 0 mm
01:47 20.4 °C 19.6 °C 1011.4 hPa SW 6.4 km/h 16.1 km/h 95 % 0 mm
01:52 20.4 °C 19.6 °C 1011.7 hPa WSW 8 km/h 16.1 km/h 95 % 0 mm
01:57 20.4 °C 19.6 °C 1011.7 hPa NW 1.6 km/h 19.3 km/h 95 % 0 mm
02:12 20.4 °C 19.6 °C 1011.7 hPa WSW 3.2 km/h 12.9 km/h 95 % 0 mm
02:17 20.4 °C 19.6 °C 1011.7 hPa SW 3.2 km/h 12.9 km/h 95 % 0 mm
02:22 20.4 °C 19.6 °C 1011.7 hPa WSW 3.2 km/h 11.3 km/h 95 % 0 mm
02:27 20.4 °C 19.6 °C 1011.7 hPa NW 1.6 km/h 12.9 km/h 95 % 0 mm
02:32 20.4 °C 19.6 °C 1012.1 hPa West 1.6 km/h 12.9 km/h 95 % 0 mm
02:37 20.4 °C 19.6 °C 1012.1 hPa WSW 1.6 km/h 12.9 km/h 95 % 0 mm
02:42 20.4 °C 19.6 °C 1011.7 hPa SSW 4.8 km/h 12.9 km/h 95 % 0 mm
02:47 20.4 °C 19.6 °C 1011.7 hPa SW 3.2 km/h 11.3 km/h 95 % 0 mm
02:52 20.4 °C 19.6 °C 1011.7 hPa WSW 3.2 km/h 12.9 km/h 95 % 0 mm
03:02 20.3 °C 19.5 °C 1011.7 hPa WSW 4.8 km/h 20.9 km/h 95 % 0 mm
03:07 20.3 °C 19.5 °C 1011.7 hPa SSW 1.6 km/h 20.9 km/h 95 % 0 mm
03:12 20.3 °C 19.5 °C 1011.7 hPa NNW 4.8 km/h 20.9 km/h 95 % 0 mm
03:17 20.3 °C 19.5 °C 1011.7 hPa West 3.2 km/h 17.7 km/h 95 % 0 mm
03:27 20.2 °C 19.4 °C 1011.7 hPa Calm   17.7 km/h 95 % 0 mm
03:32 20.2 °C 19.4 °C 1011.7 hPa Calm   9.7 km/h 95 % 0 mm
03:37 20.1 °C 19.3 °C 1011.7 hPa Calm   9.7 km/h 95 % 0 mm
03:42 20.1 °C 19.3 °C 1012.1 hPa Calm   8 km/h 95 % 0 mm
03:47 20 °C 19.3 °C 1012.1 hPa WNW 1.6 km/h 6.4 km/h 96 % 0 mm
03:52 19.9 °C 19.1 °C 1012.1 hPa SW 1.6 km/h 12.9 km/h 95 % 0 mm
03:57 19.6 °C 18.8 °C 1012.1 hPa NE 3.2 km/h 12.9 km/h 95 % 0 mm
04:02 19.4 °C 18.6 °C 1012.1 hPa West 1.6 km/h 12.9 km/h 95 % 0 mm
04:07 19.3 °C 18.5 °C 1012.4 hPa SSW 1.6 km/h 9.7 km/h 95 % 0 mm
04:12 19.2 °C 18.4 °C 1012.4 hPa WSW 9.7 km/h 9.7 km/h 95 % 0 mm
04:17 19 °C 18 °C 1012.8 hPa WNW 6.4 km/h 17.7 km/h 94 % 0 mm
04:22 18.6 °C 16.2 °C 1012.4 hPa WNW 1.6 km/h 17.7 km/h 86 % 0 mm
04:27 18.3 °C 14.8 °C 1012.4 hPa WNW 3.2 km/h 17.7 km/h 80 % 0 mm
04:32 18.1 °C 12.8 °C 1012.8 hPa NW 6.4 km/h 12.9 km/h 71 % 0 mm
04:37 17.9 °C 12.1 °C 1012.8 hPa West 4.8 km/h 12.9 km/h 69 % 0 mm
04:42 17.7 °C 12.2 °C 1012.8 hPa Calm   12.9 km/h 70 % 0 mm
04:47 17.4 °C 12.3 °C 1012.8 hPa WNW 1.6 km/h 12.9 km/h 72 % 0 mm
04:57 17 °C 12.5 °C 1012.8 hPa Calm   4.8 km/h 75 % 0 mm
05:07 16.7 °C 12.4 °C 1013.1 hPa Calm   4.8 km/h 76 % 0 mm
05:13 16.6 °C 12.4 °C 1013.1 hPa Calm   3.2 km/h 76 % 0 mm
05:18 16.4 °C 12 °C 1013.4 hPa NNW 1.6 km/h 3.2 km/h 75 % 0 mm
05:23 16.3 °C 11.7 °C 1013.4 hPa Calm   4.8 km/h 74 % 0 mm
05:28 16.3 °C 11.5 °C 1013.4 hPa Calm   4.8 km/h 73 % 0 mm
05:43 16.3 °C 9.9 °C 1013.8 hPa NNW 3.2 km/h 12.9 km/h 66 % 0 mm
05:53 15.9 °C 9.3 °C 1013.8 hPa WNW 1.6 km/h 12.9 km/h 65 % 0 mm
05:58 15.8 °C 9 °C 1013.8 hPa Calm   8 km/h 64 % 0 mm
06:03 15.6 °C 9 °C 1013.8 hPa Calm   8 km/h 65 % 0 mm
06:13 15.2 °C 8.4 °C 1014.1 hPa Calm   4.8 km/h 64 % 0 mm
06:18 15.1 °C 7.9 °C 1014.4 hPa Calm   4.8 km/h 62 % 0 mm
06:23 14.9 °C 7.7 °C 1014.4 hPa West 3.2 km/h 4.8 km/h 62 % 0 mm
06:28 14.8 °C 7.1 °C 1014.4 hPa Calm   4.8 km/h 60 % 0 mm
06:33 14.6 °C 6.7 °C 1014.4 hPa West 1.6 km/h 4.8 km/h 59 % 0 mm
06:38 14.4 °C 6.5 °C 1014.4 hPa Calm   4.8 km/h 59 % 0 mm
06:43 14.2 °C 6.3 °C 1014.4 hPa Calm   3.2 km/h 59 % 0 mm
06:48 13.9 °C 6 °C 1014.8 hPa Calm   4.8 km/h 59 % 0 mm
06:53 14 °C 5.4 °C 1014.8 hPa Calm   12.9 km/h 56 % 0 mm
06:58 14.1 °C 4.9 °C 1014.8 hPa Calm   12.9 km/h 54 % 0 mm
07:04 14.2 °C 4.8 °C 1014.8 hPa WNW 1.6 km/h 12.9 km/h 53 % 0 mm
07:09 14.1 °C 4.1 °C 1015.1 hPa NNW 3.2 km/h 6.4 km/h 51 % 0 mm
07:14 14.1 °C 3.5 °C 1015.1 hPa NNW 3.2 km/h 8 km/h 49 % 0 mm
07:19 14.1 °C 3.5 °C 1015.1 hPa Calm   8 km/h 49 % 0 mm
07:24 14 °C 2.9 °C 1015.1 hPa NE 6.4 km/h 8 km/h 47 % 0 mm
07:29 14.1 °C 3 °C 1015.5 hPa NW 6.4 km/h 9.7 km/h 47 % 0 mm
07:34 14.1 °C 2.6 °C 1015.5 hPa Calm   12.9 km/h 46 % 0 mm
07:39 14 °C 2.6 °C 1015.5 hPa NW 8 km/h 12.9 km/h 46 % 0 mm
07:44 13.9 °C 2.2 °C 1015.5 hPa NW 3.2 km/h 12.9 km/h 45 % 0 mm
08:09 14.1 °C 2 °C 1016.1 hPa WNW 1.6 km/h 9.7 km/h 44 % 0 mm
08:14 14.1 °C 1.7 °C 1016.1 hPa NW 4.8 km/h 11.3 km/h 43 % 0 mm
08:24 14.2 °C 1.5 °C 1016.1 hPa NW 6.4 km/h 16.1 km/h 42 % 0 mm
08:29 14.2 °C 1.8 °C 1016.5 hPa NNW 3.2 km/h 16.1 km/h 43 % 0 mm
08:34 14.3 °C 1.2 °C 1016.5 hPa NW 8 km/h 16.1 km/h 41 % 0 mm
08:39 14.4 °C 1.6 °C 1016.5 hPa NNE 3.2 km/h 22.5 km/h 42 % 0 mm
08:44 14.4 °C 1.6 °C 1016.8 hPa WNW 8 km/h 22.5 km/h 42 % 0 mm
08:49 14.5 °C 1.7 °C 1016.8 hPa NW 3.2 km/h 22.5 km/h 42 % 0 mm
08:54 14.6 °C 1.1 °C 1016.8 hPa NNW 4.8 km/h 16.1 km/h 40 % 0 mm
08:59 14.5 °C 0.7 °C 1016.8 hPa NNW 9.7 km/h 16.1 km/h 39 % 0 mm
09:05 14.6 °C 1.5 °C 1016.8 hPa NNW 3.2 km/h 17.7 km/h 41 % 0 mm
09:10 14.8 °C 1.7 °C 1017.2 hPa North 9.7 km/h 17.7 km/h 41 % 0 mm
09:15 14.9 °C 1.1 °C 1017.2 hPa NNW 9.7 km/h 17.7 km/h 39 % 0 mm
09:20 14.9 °C 0.7 °C 1017.2 hPa WNW 17.7 km/h 17.7 km/h 38 % 0 mm
09:25 14.8 °C 0.2 °C 1017.2 hPa North 9.7 km/h 17.7 km/h 37 % 0 mm
09:30 14.8 °C 0.2 °C 1017.2 hPa NW 9.7 km/h 19.3 km/h 37 % 0 mm
09:35 14.8 °C 0.2 °C 1017.5 hPa NW 4.8 km/h 22.5 km/h 37 % 0 mm
09:40 14.8 °C 1 °C 1017.5 hPa WSW 17.7 km/h 22.5 km/h 39 % 0 mm
09:45 14.9 °C 0.7 °C 1017.5 hPa WSW 17.7 km/h 27.4 km/h 38 % 0 mm
09:50 14.8 °C 0.6 °C 1017.5 hPa West 1.6 km/h 27.4 km/h 38 % 0 mm
09:55 14.9 °C 0.7 °C 1017.8 hPa NW 8 km/h 27.4 km/h 38 % 0 mm
10:00 15.1 °C 0.9 °C 1017.8 hPa West 9.7 km/h 22.5 km/h 38 % 0 mm
10:05 15.1 °C 0.9 °C 1017.8 hPa West 3.2 km/h 22.5 km/h 38 % 0 mm
10:10 15.4 °C 1.5 °C 1017.8 hPa NNW 4.8 km/h 19.3 km/h 39 % 0 mm
10:15 15.7 °C 2.1 °C 1017.8 hPa NNW 8 km/h 16.1 km/h 40 % 0 mm
10:20 15.7 °C 1.4 °C 1017.8 hPa NW 8 km/h 25.7 km/h 38 % 0 mm
10:25 15.6 °C 1.7 °C 1018.2 hPa NW 12.9 km/h 25.7 km/h 39 % 0 mm
10:30 15.5 °C 2 °C 1018.2 hPa NW 6.4 km/h 25.7 km/h 40 % 0 mm
10:35 15.8 °C 1.9 °C 1018.2 hPa North 3.2 km/h 20.9 km/h 39 % 0 mm
10:40 15.7 °C 1.8 °C 1018.2 hPa NNW 11.3 km/h 22.5 km/h 39 % 0 mm
10:45 15.6 °C 2 °C 1018.2 hPa NW 6.4 km/h 24.1 km/h 40 % 0 mm
10:50 15.6 °C 1.7 °C 1018.2 hPa WNW 16.1 km/h 25.7 km/h 39 % 0 mm
10:55 15.5 °C 1.6 °C 1018.2 hPa NNW 11.3 km/h 25.7 km/h 39 % 0 mm
11:00 15.6 °C 2 °C 1018.2 hPa WNW 12.9 km/h 25.7 km/h 40 % 0 mm
11:05 15.7 °C 2.1 °C 1018.2 hPa NW 4.8 km/h 24.1 km/h 40 % 0 mm
11:10 15.7 °C 1.8 °C 1018.2 hPa NW 16.1 km/h 22.5 km/h 39 % 0 mm
11:15 15.7 °C 2.1 °C 1018.2 hPa NW 19.3 km/h 22.5 km/h 40 % 0 mm
11:20 15.8 °C 1.5 °C 1018.2 hPa NW 14.5 km/h 25.7 km/h 38 % 0 mm
11:26 15.7 °C 1.8 °C 1018.2 hPa North 9.7 km/h 29 km/h 39 % 0 mm
11:31 15.8 °C 2.2 °C 1018.2 hPa North 9.7 km/h 29 km/h 40 % 0 mm
11:36 16.1 °C 2.5 °C 1017.8 hPa WNW 3.2 km/h 29 km/h 40 % 0 mm
11:41 16.5 °C 2.5 °C 1017.8 hPa NNW 11.3 km/h 20.9 km/h 39 % 0 mm
11:46 16.6 °C 1.5 °C 1017.8 hPa NNW 11.3 km/h 24.1 km/h 36 % 0 mm
11:51 16.6 °C 1.5 °C 1017.8 hPa WNW 6.4 km/h 24.1 km/h 36 % 0 mm
11:56 16.7 °C 1.6 °C 1017.8 hPa West 12.9 km/h 24.1 km/h 36 % 0 mm
12:01 16.9 °C 1.7 °C 1017.8 hPa NNW 9.7 km/h 22.5 km/h 36 % 0 mm
12:06 17.2 °C 1.6 °C 1017.8 hPa NW 12.9 km/h 19.3 km/h 35 % 0 mm
12:11 16.9 °C 0.5 °C 1017.8 hPa NW 9.7 km/h 19.3 km/h 33 % 0 mm
12:16 16.9 °C 0.9 °C 1017.5 hPa NNW 14.5 km/h 20.9 km/h 34 % 0 mm
12:21 16.9 °C 0.5 °C 1017.5 hPa South 6.4 km/h 20.9 km/h 33 % 0 mm
12:26 16.9 °C 0.5 °C 1017.5 hPa NW 12.9 km/h 24.1 km/h 33 % 0 mm
12:31 16.8 °C 0 °C 1017.5 hPa NW 11.3 km/h 24.1 km/h 32 % 0 mm
12:36 16.6 °C -0.2 °C 1017.2 hPa NNW 19.3 km/h 29 km/h 32 % 0 mm
12:41 16.7 °C 0.3 °C 1017.2 hPa NNW 8 km/h 29 km/h 33 % 0 mm
12:46 16.8 °C 0 °C 1017.2 hPa WNW 3.2 km/h 29 km/h 32 % 0 mm
12:51 16.8 °C 0.4 °C 1016.8 hPa WSW 8 km/h 27.4 km/h 33 % 0 mm
12:56 17.1 °C 0.3 °C 1016.8 hPa NW 8 km/h 24.1 km/h 32 % 0 mm
13:01 17 °C 0.6 °C 1016.8 hPa NW 11.3 km/h 24.1 km/h 33 % 0 mm
13:06 17.1 °C -0.2 °C 1016.5 hPa NW 11.3 km/h 22.5 km/h 31 % 0 mm
13:11 17.2 °C 0.4 °C 1016.5 hPa NW 8 km/h 22.5 km/h 32 % 0 mm
13:17 17.4 °C 0.5 °C 1016.5 hPa WNW 11.3 km/h 22.5 km/h 32 % 0 mm
13:22 17.3 °C -0.4 °C 1016.1 hPa NW 12.9 km/h 29 km/h 30 % 0 mm
13:27 17.2 °C -0.5 °C 1016.1 hPa NW 8 km/h 29 km/h 30 % 0 mm
13:32 17.4 °C 0.1 °C 1016.1 hPa NNW 6.4 km/h 29 km/h 31 % 0 mm
13:37 17.5 °C 0.2 °C 1016.1 hPa NNE 17.7 km/h 24.1 km/h 31 % 0 mm
13:42 17.5 °C -0.7 °C 1016.1 hPa NW 14.5 km/h 24.1 km/h 29 % 0 mm
13:47 17.6 °C -0.7 °C 1016.1 hPa NNW 11.3 km/h 24.1 km/h 29 % 0 mm
13:52 17.8 °C 0 °C 1016.1 hPa WNW 14.5 km/h 24.1 km/h 30 % 0 mm
13:57 17.8 °C 0 °C 1016.1 hPa NNW 8 km/h 24.1 km/h 30 % 0 mm
14:02 17.9 °C 0.1 °C 1016.1 hPa NNW 4.8 km/h 24.1 km/h 30 % 0 mm
14:07 18 °C -0.3 °C 1016.1 hPa NW 8 km/h 24.1 km/h 29 % 0 mm
14:12 17.8 °C -0.5 °C 1015.8 hPa NW 4.8 km/h 20.9 km/h 29 % 0 mm
14:17 17.9 °C -0.9 °C 1016.1 hPa NW 6.4 km/h 22.5 km/h 28 % 0 mm
14:22 18.1 °C -0.7 °C 1016.1 hPa NW 17.7 km/h 22.5 km/h 28 % 0 mm
14:27 17.8 °C -1.5 °C 1015.8 hPa NW 11.3 km/h 32.2 km/h 27 % 0 mm
14:32 17.9 °C -0.9 °C 1016.1 hPa WNW 3.2 km/h 32.2 km/h 28 % 0 mm
14:37 18 °C -1.3 °C 1015.8 hPa WNW 9.7 km/h 32.2 km/h 27 % 0 mm
14:42 18.1 °C -0.7 °C 1015.8 hPa SSW 9.7 km/h 27.4 km/h 28 % 0 mm
14:47 18.1 °C -0.7 °C 1015.8 hPa WNW 6.4 km/h 27.4 km/h 28 % 0 mm
14:52 18.1 °C -0.7 °C 1015.5 hPa NNW 14.5 km/h 17.7 km/h 28 % 0 mm
14:57 18.1 °C -0.7 °C 1015.5 hPa WNW 17.7 km/h 20.9 km/h 28 % 0 mm
15:02 18 °C -0.8 °C 1015.5 hPa NNW 9.7 km/h 24.1 km/h 28 % 0 mm
15:07 18.1 °C -1.7 °C 1015.8 hPa NNE 8 km/h 24.1 km/h 26 % 0 mm
15:12 18 °C -1.8 °C 1015.8 hPa WSW 8 km/h 24.1 km/h 26 % 0 mm
15:17 18.1 °C -1.2 °C 1015.8 hPa WNW 4.8 km/h 24.1 km/h 27 % 0 mm
15:22 18.1 °C -0.7 °C 1015.8 hPa NW 3.2 km/h 24.1 km/h 28 % 0 mm
15:27 18.1 °C -0.7 °C 1015.8 hPa NW 17.7 km/h 20.9 km/h 28 % 0 mm
15:32 17.9 °C -1.4 °C 1015.8 hPa NW 6.4 km/h 22.5 km/h 27 % 0 mm
15:37 17.8 °C -1 °C 1016.1 hPa WNW 8 km/h 24.1 km/h 28 % 0 mm
15:42 17.7 °C -1 °C 1016.1 hPa NW 9.7 km/h 30.6 km/h 28 % 0 mm
15:47 17.7 °C -0.6 °C 1016.1 hPa NW 8 km/h 30.6 km/h 29 % 0 mm
15:52 17.7 °C -1 °C 1016.1 hPa West 16.1 km/h 30.6 km/h 28 % 0 mm
15:57 17.7 °C -0.6 °C 1016.1 hPa NW 3.2 km/h 19.3 km/h 29 % 0 mm
16:02 17.7 °C -0.6 °C 1016.1 hPa WNW 6.4 km/h 20.9 km/h 29 % 0 mm
16:07 17.6 °C -0.7 °C 1016.1 hPa West 4.8 km/h 20.9 km/h 29 % 0 mm
16:12 17.6 °C -0.7 °C 1016.1 hPa NW 11.3 km/h 20.9 km/h 29 % 0 mm
16:17 17.4 °C -0.8 °C 1016.5 hPa WNW 3.2 km/h 19.3 km/h 29 % 0 mm
16:22 17.4 °C -0.8 °C 1016.5 hPa NNW 12.9 km/h 19.3 km/h 29 % 0 mm
16:27 17.3 °C -0.9 °C 1016.5 hPa NW 12.9 km/h 19.3 km/h 29 % 0 mm
16:32 17.2 °C -1 °C 1016.5 hPa NNW 4.8 km/h 25.7 km/h 29 % 0 mm
16:37 17.1 °C -1.1 °C 1016.8 hPa NW 8 km/h 25.7 km/h 29 % 0 mm
16:42 17 °C -0.7 °C 1016.8 hPa NW 9.7 km/h 27.4 km/h 30 % 0 mm
16:47 16.9 °C -0.8 °C 1016.8 hPa NW 8 km/h 27.4 km/h 30 % 0 mm
16:52 16.9 °C -0.8 °C 1017.2 hPa NNW 19.3 km/h 27.4 km/h 30 % 0 mm
16:57 16.8 °C -0.4 °C 1017.2 hPa NNW 6.4 km/h 24.1 km/h 31 % 0 mm
17:02 16.7 °C -0.5 °C 1017.2 hPa NW 8 km/h 24.1 km/h 31 % 0 mm
17:07 16.6 °C -0.6 °C 1017.2 hPa NNW 6.4 km/h 24.1 km/h 31 % 0 mm
17:12 16.4 °C -0.8 °C 1017.2 hPa WNW 6.4 km/h 24.1 km/h 31 % 0 mm
17:17 16.3 °C -0.4 °C 1017.2 hPa WNW 6.4 km/h 20.9 km/h 32 % 0 mm
17:22 16.3 °C -0.9 °C 1017.2 hPa NNW 14.5 km/h 27.4 km/h 31 % 0 mm
17:27 16.1 °C -0.6 °C 1017.2 hPa NW 4.8 km/h 27.4 km/h 32 % 0 mm
17:32 16 °C -0.3 °C 1017.2 hPa Calm   27.4 km/h 33 % 0 mm
17:37 15.9 °C -0.4 °C 1017.5 hPa WNW 8 km/h 20.9 km/h 33 % 0 mm
17:42 15.8 °C -0.4 °C 1017.5 hPa NNW 4.8 km/h 20.9 km/h 33 % 0 mm
17:47 15.6 °C -0.2 °C 1017.5 hPa NW 4.8 km/h 20.9 km/h 34 % 0 mm
17:52 15.4 °C -0.4 °C 1017.5 hPa NNW 3.2 km/h 11.3 km/h 34 % 0 mm
17:57 15.3 °C -0.1 °C 1017.5 hPa NW 3.2 km/h 11.3 km/h 35 % 0 mm
18:02 15.2 °C -0.2 °C 1017.5 hPa WNW 1.6 km/h 9.7 km/h 35 % 0 mm
18:07 15 °C -0.3 °C 1017.8 hPa NW 1.6 km/h 9.7 km/h 35 % 0 mm
18:12 14.9 °C 0 °C 1017.8 hPa NNE 1.6 km/h 6.4 km/h 36 % 0 mm
18:17 14.7 °C -0.2 °C 1017.8 hPa NNW 1.6 km/h 6.4 km/h 36 % 0 mm
18:22 14.5 °C 0 °C 1017.8 hPa North 1.6 km/h 6.4 km/h 37 % 0 mm
18:27 14.2 °C -0.3 °C 1017.8 hPa Calm   6.4 km/h 37 % 0 mm
18:32 13.9 °C -0.2 °C 1017.8 hPa Calm   4.8 km/h 38 % 0 mm
18:37 13.5 °C -0.2 °C 1017.8 hPa Calm   3.2 km/h 39 % 0 mm
18:42 13.1 °C -0.2 °C 1018.2 hPa Calm   3.2 km/h 40 % 0 mm
18:47 12.6 °C 0 °C 1018.2 hPa Calm     42 % 0 mm
18:52 12.1 °C -0.1 °C 1018.2 hPa Calm     43 % 0 mm
18:57 11.7 °C 0.5 °C 1018.5 hPa Calm     46 % 0 mm
19:02 11.3 °C 0.7 °C 1018.5 hPa Calm     48 % 0 mm
19:12 10.7 °C 0.4 °C 1018.5 hPa Calm     49 % 0 mm
19:17 10.2 °C 0.2 °C 1018.5 hPa Calm     50 % 0 mm
19:27 9.3 °C 0.5 °C 1018.8 hPa Calm     54 % 0 mm
19:32 9 °C 1.2 °C 1018.8 hPa Calm     58 % 0 mm
19:37 8.9 °C 1.3 °C 1018.8 hPa Calm     59 % 0 mm
19:42 8.8 °C 1.5 °C 1018.8 hPa Calm     60 % 0 mm
19:47 8.8 °C 1.9 °C 1018.8 hPa Calm     62 % 0 mm
19:52 8.9 °C 2 °C 1018.8 hPa Calm     62 % 0 mm
19:57 8.7 °C 1.6 °C 1018.8 hPa Calm     61 % 0 mm
20:02 8.3 °C 1.4 °C 1018.8 hPa Calm     62 % 0 mm
20:07 8.2 °C 2 °C 1018.8 hPa Calm     65 % 0 mm
20:12 8.2 °C 2.2 °C 1018.8 hPa Calm     66 % 0 mm
20:17 8.1 °C 1.9 °C 1018.8 hPa Calm     65 % 0 mm
20:22 7.8 °C 1.6 °C 1018.8 hPa Calm     65 % 0 mm
20:27 7.5 °C 1.3 °C 1018.8 hPa Calm     65 % 0 mm
20:32 7.2 °C 1.3 °C 1019.2 hPa Calm     66 % 0 mm
20:37 7 °C 1.7 °C 1018.8 hPa Calm     69 % 0 mm
20:42 7.3 °C 2.4 °C 1018.8 hPa Calm     71 % 0 mm
20:47 7.5 °C 2.4 °C 1018.8 hPa Calm     70 % 0 mm
20:52 7.4 °C 2.1 °C 1019.2 hPa Calm     69 % 0 mm
20:57 7.3 °C 2 °C 1019.2 hPa Calm     69 % 0 mm
21:02 7.1 °C 1.6 °C 1019.2 hPa Calm     68 % 0 mm
21:07 6.9 °C 1.4 °C 1019.2 hPa Calm     68 % 0 mm
21:12 6.7 °C 1.2 °C 1019.5 hPa Calm     68 % 0 mm
21:17 6.6 °C 1.3 °C 1019.5 hPa Calm     69 % 0 mm
21:22 6.7 °C 1.4 °C 1019.5 hPa Calm     69 % 0 mm
21:27 6.9 °C 1.8 °C 1019.5 hPa Calm     70 % 0 mm
21:32 7.1 °C 1.8 °C 1019.9 hPa Calm     69 % 0 mm
21:42 7.4 °C 1.9 °C 1019.9 hPa Calm     68 % 0 mm
21:47 7.3 °C 1.6 °C 1019.9 hPa Calm     67 % 0 mm
21:52 7.2 °C 1.7 °C 1019.9 hPa Calm     68 % 0 mm
22:02 6.9 °C 2 °C 1019.9 hPa Calm     71 % 0 mm
22:07 6.9 °C 2.2 °C 1020.2 hPa Calm     72 % 0 mm
22:12 6.7 °C 2 °C 1019.9 hPa Calm     72 % 0 mm
22:17 6.6 °C 2.1 °C 1019.9 hPa Calm     73 % 0 mm
22:22 6.4 °C 1.7 °C 1019.9 hPa Calm     72 % 0 mm
22:32 6.2 °C 1.9 °C 1020.2 hPa Calm     74 % 0 mm
22:37 6.2 °C 1.9 °C 1020.2 hPa Calm     74 % 0 mm
22:42 6.2 °C 1.9 °C 1020.2 hPa Calm     74 % 0 mm
22:47 6.1 °C 1.8 °C 1020.5 hPa Calm     74 % 0 mm
22:52 5.9 °C 1.6 °C 1020.5 hPa Calm     74 % 0 mm
22:57 5.8 °C 1.5 °C 1020.5 hPa Calm     74 % 0 mm
23:02 5.8 °C 1.7 °C 1020.9 hPa Calm     75 % 0 mm
23:07 5.8 °C 1.7 °C 1020.9 hPa Calm     75 % 0 mm
23:12 5.7 °C 1.6 °C 1020.9 hPa Calm   1.6 km/h 75 % 0 mm
23:17 5.6 °C 1.5 °C 1020.9 hPa Calm   1.6 km/h 75 % 0 mm
23:27 5.6 °C 1.9 °C 1020.9 hPa Calm   1.6 km/h 77 % 0 mm
23:37 5.3 °C 1.4 °C 1020.9 hPa Calm   1.6 km/h 76 % 0 mm
23:42 5.1 °C 1.6 °C 1020.9 hPa Calm   1.6 km/h 78 % 0 mm
23:47 5 °C 1.5 °C 1020.9 hPa Calm     78 % 0 mm
23:52 4.9 °C 1.6 °C 1020.9 hPa Calm     79 % 0 mm
23:57 4.9 °C 1.7 °C 1020.9 hPa Calm   1.6 km/h 80 % 0 mm
Spring, Texas: Villages of Bridgestone
Compliments of Weather Underground - 2.75 mb

Script developed by  Jim McMurry - jmcmurry@mwt.net Adapted for the template by  Wim van der Kuil - Leuven-Template.eu

You find our weather info also at:

UK Metoffice

WeatherCloud

Weather Underground

Mid-South Weather Network

AWEKAS

Citizen Weather Observer Program (CWOP)

HAMweather, WeatherForYou, PWS Weather

Equipment we use:

Weather-station
Davis Vantage Vue

Weather-program
Meteohub

Weather-server
Debian 7.9 x86 (Guest)

Provider
DreamHost

Davis Vantage Vue

Meteohub

Debian 7.9 x86 (Guest)

DreamHost